createdAt,value
2018-02-04T00:01:05.904Z,68.73
2018-02-04T00:03:34.220Z,68.74
2018-02-04T00:06:02.552Z,68.73
2018-02-04T00:08:30.915Z,68.16
2018-02-04T00:10:59.212Z,68.68
2018-02-04T00:13:28.949Z,69.73
2018-02-04T00:15:58.091Z,69.52
2018-02-04T00:18:27.282Z,69.17
2018-02-04T00:20:55.604Z,69.07
2018-02-04T00:23:24.029Z,69.17
2018-02-04T00:25:52.352Z,69.83
2018-02-04T00:28:20.646Z,70.11
2018-02-04T00:30:48.961Z,69.85
2018-02-04T00:33:17.282Z,69.71
2018-02-04T00:35:45.747Z,69.26
2018-02-04T00:38:14.869Z,69.46
2018-02-04T00:40:43.483Z,70.11
2018-02-04T00:43:11.792Z,69.69
2018-02-04T00:45:41.654Z,69.95
2018-02-04T00:48:09.971Z,70.43
2018-02-04T00:50:38.294Z,70.57
2018-02-04T00:53:06.612Z,70.82
2018-02-04T00:55:34.916Z,70.81
2018-02-04T00:58:03.306Z,70.61
2018-02-04T01:00:32.405Z,69.91
2018-02-04T01:03:01.464Z,70.23
2018-02-04T01:05:29.803Z,69.80
2018-02-04T01:07:58.197Z,70.39
2018-02-04T01:10:26.509Z,69.57
2018-02-04T01:12:54.834Z,70.36
2018-02-04T01:15:23.964Z,70.83
2018-02-04T01:17:52.261Z,71.47
2018-02-04T01:20:20.639Z,70.82
2018-02-04T01:22:49.734Z,70.58
2018-02-04T01:25:18.032Z,70.48
2018-02-04T01:27:46.324Z,71.35
2018-02-04T01:30:15.625Z,70.40
2018-02-04T01:32:44.691Z,69.63
2018-02-04T01:35:12.995Z,69.91
2018-02-04T01:37:42.096Z,70.22
2018-02-04T01:40:11.223Z,70.08
2018-02-04T01:42:39.565Z,70.30
2018-02-04T01:45:07.891Z,70.82
2018-02-04T01:47:36.362Z,70.57
2018-02-04T01:50:04.644Z,70.21
2018-02-04T01:52:33.214Z,70.15
2018-02-04T01:55:01.535Z,70.24
2018-02-04T01:57:29.838Z,69.89
2018-02-04T01:59:58.186Z,70.51
2018-02-04T02:02:26.475Z,69.99
2018-02-04T02:04:54.791Z,69.54
2018-02-04T02:07:23.141Z,70.51
2018-02-04T02:09:51.472Z,69.99
2018-02-04T02:12:19.811Z,70.03
2018-02-04T02:14:49.404Z,70.87
2018-02-04T02:17:17.793Z,70.02
2018-02-04T02:19:46.097Z,70.18
2018-02-04T02:22:15.204Z,70.12
2018-02-04T02:24:43.493Z,69.99
2018-02-04T02:27:11.867Z,70.19
2018-02-04T02:29:40.232Z,69.83
2018-02-04T02:32:08.552Z,71.17
2018-02-04T02:34:36.859Z,70.60
2018-02-04T02:37:06.405Z,70.28
2018-02-04T02:39:34.715Z,70.55
2018-02-04T02:42:03.028Z,69.98
2018-02-04T02:44:32.139Z,70.20
2018-02-04T02:47:01.226Z,70.29
2018-02-04T02:49:30.362Z,69.85
2018-02-04T02:51:58.759Z,69.95
2018-02-04T02:54:27.067Z,70.14
2018-02-04T02:56:55.368Z,70.23
2018-02-04T02:59:24.936Z,70.42
2018-02-04T03:01:53.248Z,70.70
2018-02-04T03:04:22.296Z,70.38
2018-02-04T03:06:50.627Z,70.72
2018-02-04T03:09:18.934Z,70.21
2018-02-04T03:11:47.269Z,70.50
2018-02-04T03:14:15.585Z,70.68
2018-02-04T03:16:43.905Z,70.17
2018-02-04T03:19:12.218Z,69.88
2018-02-04T03:21:40.697Z,70.45
2018-02-04T03:24:09.009Z,69.60
2018-02-04T03:26:37.382Z,69.33
2018-02-04T03:29:05.734Z,69.08
2018-02-04T03:31:34.066Z,70.34
2018-02-04T03:34:02.398Z,69.64
2018-02-04T03:36:31.487Z,69.09
2018-02-04T03:39:00.579Z,69.06
2018-02-04T03:41:29.645Z,69.15
2018-02-04T03:43:58.189Z,69.09
2018-02-04T03:46:26.501Z,69.25
2018-02-04T03:48:54.831Z,68.80
2018-02-04T03:51:23.170Z,69.37
2018-02-04T03:53:51.507Z,69.02
2018-02-04T03:56:19.838Z,69.42
2018-02-04T03:58:48.153Z,69.19
2018-02-04T04:01:16.453Z,69.77
2018-02-04T04:03:44.764Z,69.55
2018-02-04T04:06:13.341Z,68.52
2018-02-04T04:08:41.623Z,67.99
2018-02-04T04:11:09.912Z,69.29
2018-02-04T04:13:39.189Z,69.00
2018-02-04T04:16:07.569Z,69.36
2018-02-04T04:18:35.955Z,69.29
2018-02-04T04:21:04.402Z,69.11
2018-02-04T04:23:32.725Z,69.69
2018-02-04T04:26:01.160Z,70.12
2018-02-04T04:28:29.876Z,69.35
2018-02-04T04:30:58.357Z,69.82
2018-02-04T04:33:26.840Z,68.76
2018-02-04T04:35:55.377Z,68.03
2018-02-04T04:38:23.718Z,68.47
2018-02-04T04:40:52.862Z,67.92
2018-02-04T04:43:21.255Z,68.22
2018-02-04T04:45:50.477Z,69.72
2018-02-04T04:48:18.828Z,69.46
2018-02-04T04:50:47.856Z,69.93
2018-02-04T04:53:16.172Z,68.62
2018-02-04T04:55:44.520Z,68.24
2018-02-04T04:58:13.705Z,68.55
2018-02-04T05:00:42.088Z,68.46
2018-02-04T05:03:10.446Z,67.98
2018-02-04T05:05:38.792Z,68.38
2018-02-04T05:08:07.121Z,68.64
2018-02-04T05:10:35.428Z,68.56
2018-02-04T05:13:04.695Z,68.91
2018-02-04T05:15:33.023Z,69.55
2018-02-04T05:18:01.343Z,69.33
2018-02-04T05:20:29.683Z,70.15
2018-02-04T05:22:58.019Z,69.70
2018-02-04T05:25:26.330Z,69.55
2018-02-04T05:27:54.690Z,69.70
2018-02-04T05:30:23.023Z,69.53
2018-02-04T05:32:51.332Z,68.89
2018-02-04T05:35:19.892Z,68.29
2018-02-04T05:37:48.206Z,68.78
2018-02-04T05:40:16.719Z,68.70
2018-02-04T05:42:45.176Z,69.56
2018-02-04T05:45:13.531Z,68.38
2018-02-04T05:47:41.857Z,69.41
2018-02-04T05:50:10.284Z,69.87
2018-02-04T05:52:38.634Z,69.71
2018-02-04T05:55:07.050Z,70.02
2018-02-04T05:57:35.776Z,70.19
2018-02-04T06:00:04.065Z,70.66
2018-02-04T06:02:32.384Z,70.62
2018-02-04T06:05:00.742Z,70.40
2018-02-04T06:07:29.040Z,71.07
2018-02-04T06:09:57.351Z,70.60
2018-02-04T06:12:26.455Z,71.18
2018-02-04T06:14:55.531Z,71.16
2018-02-04T06:17:23.876Z,70.89
2018-02-04T06:19:52.563Z,70.60
2018-02-04T06:22:20.873Z,70.87
2018-02-04T06:24:49.195Z,70.77
2018-02-04T06:27:17.513Z,70.84
2018-02-04T06:29:45.815Z,71.31
2018-02-04T06:32:14.881Z,71.54
2018-02-04T06:34:43.963Z,71.15
2018-02-04T06:37:12.272Z,70.90
2018-02-04T06:39:40.583Z,70.71
2018-02-04T06:42:08.987Z,71.01
2018-02-04T06:44:37.316Z,70.26
2018-02-04T06:47:05.656Z,69.69
2018-02-04T06:49:33.989Z,69.92
2018-02-04T06:52:02.311Z,70.14
2018-02-04T06:54:30.716Z,70.63
2018-02-04T06:56:59.067Z,70.92
2018-02-04T06:59:27.369Z,71.35
2018-02-04T07:01:55.653Z,71.70
2018-02-04T07:04:24.460Z,71.43
2018-02-04T07:06:52.776Z,70.79
2018-02-04T07:09:21.105Z,70.94
2018-02-04T07:11:49.448Z,70.14
2018-02-04T07:14:17.764Z,69.69
2018-02-04T07:16:46.132Z,70.56
2018-02-04T07:19:14.477Z,71.76
2018-02-04T07:21:42.816Z,72.14
2018-02-04T07:24:11.955Z,71.54
2018-02-04T07:26:40.661Z,71.16
2018-02-04T07:29:09.158Z,70.47
2018-02-04T07:31:38.237Z,69.43
2018-02-04T07:34:06.555Z,67.67
2018-02-04T07:36:35.643Z,64.95
2018-02-04T07:39:04.739Z,63.20
2018-02-04T07:41:33.843Z,61.78
2018-02-04T07:44:02.924Z,60.54
2018-02-04T07:46:32.016Z,56.92
2018-02-04T07:49:01.603Z,53.61
2018-02-04T07:51:29.944Z,50.97
2018-02-04T07:53:58.291Z,48.52
2018-02-04T07:56:27.402Z,46.53
2018-02-04T07:58:55.715Z,44.66
2018-02-04T08:01:24.012Z,42.68
2018-02-04T08:03:52.356Z,42.08
2018-02-04T08:06:20.722Z,41.02
2018-02-04T08:08:49.047Z,40.36
2018-02-04T08:11:17.703Z,39.43
2018-02-04T08:13:46.018Z,39.09
2018-02-04T08:16:14.368Z,38.48
2018-02-04T08:18:42.727Z,36.84
2018-02-04T08:21:11.047Z,35.28
2018-02-04T08:23:39.364Z,33.97
2018-02-04T08:26:08.460Z,33.72
2018-02-04T08:28:37.524Z,32.03
2018-02-04T08:31:06.375Z,31.15
2018-02-04T08:33:35.131Z,30.28
2018-02-04T08:36:03.591Z,30.76
2018-02-04T08:38:31.908Z,28.67
2018-02-04T08:41:00.276Z,28.07
2018-02-04T08:43:28.591Z,28.13
2018-02-04T08:45:56.919Z,28.54
2018-02-04T08:48:26.009Z,28.36
2018-02-04T08:50:54.352Z,27.35
2018-02-04T08:53:22.673Z,27.33
2018-02-04T08:55:51.336Z,27.08
2018-02-04T08:58:19.689Z,27.00
2018-02-04T09:00:48.003Z,24.82
2018-02-04T09:03:16.384Z,25.13
2018-02-04T09:05:44.680Z,28.53
2018-02-04T09:08:13.786Z,33.18
2018-02-04T09:10:42.102Z,36.46
2018-02-04T09:13:10.444Z,41.04
2018-02-04T09:15:38.763Z,43.19
2018-02-04T09:18:07.604Z,46.47
2018-02-04T09:20:35.931Z,48.61
2018-02-04T09:23:04.236Z,49.58
2018-02-04T09:25:35.561Z,51.60
2018-02-04T09:28:04.631Z,52.60
2018-02-04T09:30:32.986Z,54.13
2018-02-04T09:33:02.513Z,54.49
2018-02-04T09:35:30.841Z,55.63
2018-02-04T09:37:59.195Z,55.68
2018-02-04T09:40:27.619Z,56.02
2018-02-04T09:42:56.700Z,56.80
2018-02-04T09:45:25.096Z,56.66
2018-02-04T09:47:54.201Z,57.66
2018-02-04T09:50:22.531Z,56.89
2018-02-04T09:52:50.855Z,56.74
2018-02-04T09:55:19.286Z,57.80
2018-02-04T09:57:47.691Z,58.76
2018-02-04T10:00:16.017Z,58.49
2018-02-04T10:02:44.765Z,58.63
2018-02-04T10:05:13.094Z,58.11
2018-02-04T10:07:41.404Z,58.83
2018-02-04T10:10:10.207Z,58.82
2018-02-04T10:12:38.579Z,58.99
2018-02-04T10:15:07.698Z,58.50
2018-02-04T10:17:36.857Z,58.31
2018-02-04T10:20:05.205Z,57.93
2018-02-04T10:22:33.522Z,59.47
2018-02-04T10:25:02.321Z,57.79
2018-02-04T10:27:30.680Z,58.80
2018-02-04T10:29:59.764Z,58.67
2018-02-04T10:32:28.117Z,59.41
2018-02-04T10:34:56.450Z,59.69
2018-02-04T10:37:24.790Z,59.04
2018-02-04T10:39:53.132Z,59.14
2018-02-04T10:42:22.228Z,59.31
2018-02-04T10:44:51.324Z,59.28
2018-02-04T10:47:20.957Z,58.47
2018-02-04T10:49:49.371Z,58.79
2018-02-04T10:52:17.706Z,59.58
2018-02-04T10:54:46.088Z,59.27
2018-02-04T10:57:14.408Z,60.32
2018-02-04T10:59:42.746Z,60.62
2018-02-04T11:02:11.147Z,60.61
2018-02-04T11:04:39.543Z,60.67
2018-02-04T11:07:07.839Z,61.47
2018-02-04T11:09:36.452Z,61.73
2018-02-04T11:12:04.781Z,61.01
2018-02-04T11:14:33.097Z,61.40
2018-02-04T11:17:02.222Z,61.46
2018-02-04T11:19:30.557Z,61.93
2018-02-04T11:21:58.868Z,62.81
2018-02-04T11:24:27.684Z,63.52
2018-02-04T11:26:56.054Z,63.24
2018-02-04T11:29:24.410Z,63.03
2018-02-04T11:31:53.909Z,62.14
2018-02-04T11:34:23.007Z,62.86
2018-02-04T11:36:52.145Z,63.31
2018-02-04T11:39:20.502Z,62.76
2018-02-04T11:41:48.820Z,63.03
2018-02-04T11:44:17.146Z,63.66
2018-02-04T11:46:46.244Z,63.92
2018-02-04T11:49:14.575Z,63.58
2018-02-04T11:51:42.885Z,63.20
2018-02-04T11:54:11.563Z,63.92
2018-02-04T11:56:39.888Z,63.11
2018-02-04T11:59:08.272Z,62.30
2018-02-04T12:01:36.944Z,62.27
2018-02-04T12:04:05.359Z,62.84
2018-02-04T12:06:33.819Z,62.00
2018-02-04T12:09:02.151Z,62.16
2018-02-04T12:11:31.257Z,62.12
2018-02-04T12:14:00.321Z,61.98
2018-02-04T12:16:29.316Z,61.62
2018-02-04T12:18:57.653Z,60.65
2018-02-04T12:21:25.983Z,60.60
2018-02-04T12:23:55.102Z,60.26
2018-02-04T12:26:24.176Z,60.73
2018-02-04T12:28:53.761Z,59.48
2018-02-04T12:31:22.416Z,58.88
2018-02-04T12:33:50.732Z,58.78
2018-02-04T12:36:19.127Z,58.19
2018-02-04T12:38:48.130Z,58.62
2018-02-04T12:41:16.454Z,59.69
2018-02-04T12:43:44.762Z,59.26
2018-02-04T12:46:13.105Z,57.36
2018-02-04T12:48:41.439Z,56.67
2018-02-04T12:51:09.778Z,56.27
2018-02-04T12:53:38.200Z,56.58
2018-02-04T12:56:07.441Z,56.07
2018-02-04T12:58:35.824Z,56.28
2018-02-04T13:01:04.353Z,56.33
2018-02-04T13:03:32.676Z,57.54
2018-02-04T13:06:00.988Z,57.69
2018-02-04T13:08:29.407Z,58.34
2018-02-04T13:10:58.581Z,58.75
2018-02-04T13:13:26.967Z,59.39
2018-02-04T13:15:55.784Z,59.20
2018-02-04T13:18:24.096Z,59.08
2018-02-04T13:20:52.462Z,59.32
2018-02-04T13:23:21.114Z,59.05
2018-02-04T13:25:50.220Z,58.97
2018-02-04T13:28:19.581Z,60.12
2018-02-04T13:30:47.977Z,58.90
2018-02-04T13:33:17.106Z,59.50
2018-02-04T13:35:45.439Z,59.82
2018-02-04T13:38:13.776Z,59.25
2018-02-04T13:40:42.076Z,59.04
2018-02-04T13:43:10.513Z,60.28
2018-02-04T13:45:39.060Z,60.91
2018-02-04T13:48:07.402Z,60.83
2018-02-04T13:50:35.746Z,61.19
2018-02-04T13:53:05.132Z,61.43
2018-02-04T13:55:33.472Z,62.25
2018-02-04T13:58:01.887Z,62.51
2018-02-04T14:00:30.246Z,62.07
2018-02-04T14:02:58.570Z,62.12
2018-02-04T14:05:26.880Z,61.72
2018-02-04T14:07:55.733Z,61.47
2018-02-04T14:10:24.041Z,60.97
2018-02-04T14:12:52.434Z,60.55
2018-02-04T14:15:20.761Z,59.26
2018-02-04T14:17:49.216Z,60.55
2018-02-04T14:20:17.529Z,61.20
2018-02-04T14:22:46.672Z,61.54
2018-02-04T14:25:15.034Z,61.79
2018-02-04T14:27:43.336Z,62.60
2018-02-04T14:30:12.468Z,63.35
2018-02-04T14:32:40.814Z,62.93
2018-02-04T14:35:09.126Z,64.10
2018-02-04T14:37:38.266Z,64.41
2018-02-04T14:40:06.592Z,65.12
2018-02-04T14:42:34.892Z,65.06
2018-02-04T14:45:03.264Z,65.77
2018-02-04T14:47:32.349Z,65.87
2018-02-04T14:50:01.462Z,66.04
2018-02-04T14:52:31.063Z,66.13
2018-02-04T14:54:59.487Z,66.70
2018-02-04T14:57:27.892Z,67.15
2018-02-04T14:59:56.218Z,66.50
2018-02-04T15:02:25.294Z,67.17
2018-02-04T15:04:53.720Z,67.47
2018-02-04T15:07:22.391Z,66.17
2018-02-04T15:09:50.895Z,66.68
2018-02-04T15:12:19.243Z,66.87
2018-02-04T15:14:47.848Z,67.02
2018-02-04T15:17:16.173Z,68.16
2018-02-04T15:19:44.516Z,67.60
2018-02-04T15:22:12.889Z,67.87
2018-02-04T15:24:41.369Z,68.36
2018-02-04T15:27:09.689Z,68.11
2018-02-04T15:29:38.048Z,67.48
2018-02-04T15:32:06.442Z,68.18
2018-02-04T15:34:34.742Z,68.52
2018-02-04T15:37:04.041Z,68.17
2018-02-04T15:39:32.360Z,68.59
2018-02-04T15:42:00.694Z,68.50
2018-02-04T15:44:29.567Z,68.34
2018-02-04T15:46:57.898Z,68.06
2018-02-04T15:49:26.396Z,67.62
2018-02-04T15:51:54.864Z,67.61
2018-02-04T15:54:23.212Z,68.38
2018-02-04T15:56:51.660Z,68.27
2018-02-04T15:59:20.868Z,68.81
2018-02-04T16:01:49.200Z,70.47
2018-02-04T16:04:17.545Z,69.08
2018-02-04T16:06:46.668Z,68.63
2018-02-04T16:09:14.996Z,68.94
2018-02-04T16:11:43.340Z,68.86
2018-02-04T16:14:11.689Z,69.04
2018-02-04T16:16:40.791Z,69.12
2018-02-04T16:19:09.132Z,69.14
2018-02-04T16:21:38.508Z,68.85
2018-02-04T16:24:06.864Z,69.46
2018-02-04T16:26:35.294Z,68.86
2018-02-04T16:29:03.678Z,68.95
2018-02-04T16:31:32.179Z,69.06
2018-02-04T16:34:01.290Z,69.50
2018-02-04T16:36:29.709Z,69.25
2018-02-04T16:38:58.077Z,69.18
2018-02-04T16:41:26.434Z,69.88
2018-02-04T16:43:55.082Z,69.90
2018-02-04T16:46:23.520Z,70.61
2018-02-04T16:48:51.967Z,70.54
2018-02-04T16:51:20.354Z,71.03
2018-02-04T16:53:48.729Z,71.22
2018-02-04T16:56:17.107Z,71.20
2018-02-04T16:58:46.587Z,70.80
2018-02-04T17:01:14.917Z,71.07
2018-02-04T17:03:43.253Z,70.82
2018-02-04T17:06:12.184Z,70.83
2018-02-04T17:08:40.504Z,71.33
2018-02-04T17:11:08.817Z,71.42
2018-02-04T17:13:37.924Z,70.99
2018-02-04T17:16:06.256Z,71.10
2018-02-04T17:18:34.580Z,71.11
2018-02-04T17:21:02.988Z,70.86
2018-02-04T17:23:31.347Z,71.46
2018-02-04T17:25:59.645Z,70.77
2018-02-04T17:28:28.042Z,70.64
2018-02-04T17:30:56.344Z,71.09
2018-02-04T17:33:24.652Z,70.31
2018-02-04T17:35:53.247Z,71.56
2018-02-04T17:38:21.548Z,71.53
2018-02-04T17:40:49.884Z,71.91
2018-02-04T17:43:18.220Z,71.79
2018-02-04T17:45:46.546Z,71.42
2018-02-04T17:48:14.887Z,71.20
2018-02-04T17:50:43.428Z,70.69
2018-02-04T17:53:11.738Z,70.37
2018-02-04T17:55:40.047Z,70.79
2018-02-04T17:58:09.160Z,71.20
2018-02-04T18:00:38.249Z,71.01
2018-02-04T18:03:07.335Z,70.76
2018-02-04T18:05:36.484Z,70.52
2018-02-04T18:08:04.844Z,71.30
2018-02-04T18:10:33.170Z,71.19
2018-02-04T18:13:02.097Z,71.26
2018-02-04T18:15:31.202Z,71.24
2018-02-04T18:18:00.261Z,70.28
2018-02-04T18:20:28.603Z,70.53
2018-02-04T18:22:56.932Z,70.94
2018-02-04T18:25:25.271Z,70.46
2018-02-04T18:27:53.632Z,70.42
2018-02-04T18:30:21.941Z,70.44
2018-02-04T18:32:50.270Z,69.34
2018-02-04T18:35:18.783Z,70.59
2018-02-04T18:37:47.200Z,69.63
2018-02-04T18:40:15.527Z,68.86
2018-02-04T18:42:43.871Z,69.34
2018-02-04T18:45:12.956Z,69.51
2018-02-04T18:47:42.026Z,68.70
2018-02-04T18:50:10.845Z,69.30
2018-02-04T18:52:39.169Z,69.36
2018-02-04T18:55:07.510Z,69.52
2018-02-04T18:57:36.691Z,69.58
2018-02-04T19:00:06.815Z,69.75
2018-02-04T19:02:35.148Z,69.46
2018-02-04T19:05:03.507Z,70.02
2018-02-04T19:07:31.987Z,69.99
2018-02-04T19:10:00.383Z,70.42
2018-02-04T19:12:28.709Z,70.12
2018-02-04T19:14:57.039Z,69.81
2018-02-04T19:17:25.387Z,69.47
2018-02-04T19:19:54.623Z,70.46
2018-02-04T19:22:23.213Z,69.97
2018-02-04T19:24:51.555Z,69.44
2018-02-04T19:27:20.334Z,68.83
2018-02-04T19:29:48.662Z,69.23
2018-02-04T19:32:16.968Z,68.57
2018-02-04T19:34:45.326Z,68.48
2018-02-04T19:37:13.681Z,69.17
2018-02-04T19:39:42.018Z,69.11
2018-02-04T19:42:11.208Z,68.67
2018-02-04T19:44:39.531Z,69.42
2018-02-04T19:47:07.872Z,69.82
2018-02-04T19:49:37.036Z,70.06
2018-02-04T19:52:05.403Z,70.80
2018-02-04T19:54:33.711Z,70.58
2018-02-04T19:57:02.073Z,71.59
2018-02-04T19:59:30.433Z,71.15
2018-02-04T20:01:58.775Z,71.42
2018-02-04T20:04:28.424Z,70.96
2018-02-04T20:06:56.745Z,71.71
2018-02-04T20:09:25.074Z,72.34
2018-02-04T20:11:53.408Z,71.96
2018-02-04T20:14:21.738Z,72.38
2018-02-04T20:16:50.092Z,72.43
2018-02-04T20:19:18.429Z,72.93
2018-02-04T20:21:46.744Z,71.69
2018-02-04T20:24:15.060Z,71.88
2018-02-04T20:26:43.722Z,72.11
2018-02-04T20:29:12.024Z,72.10
2018-02-04T20:31:40.400Z,71.78
2018-02-04T20:34:26.471Z,72.05
2018-02-04T20:36:54.816Z,71.91
2018-02-04T20:39:23.129Z,71.26
2018-02-04T20:41:52.991Z,71.34
2018-02-04T20:44:22.145Z,70.14
2018-02-04T20:46:50.472Z,71.54
2018-02-04T20:49:18.823Z,71.72
2018-02-04T20:51:47.126Z,71.16
2018-02-04T20:54:15.462Z,70.49
2018-02-04T20:56:43.832Z,70.37
2018-02-04T20:59:12.168Z,70.40
2018-02-04T21:01:41.196Z,70.34
2018-02-04T21:04:09.674Z,70.17
2018-02-04T21:06:37.973Z,70.04
2018-02-04T21:09:06.301Z,70.04
2018-02-04T21:11:34.629Z,70.19
2018-02-04T21:14:03.188Z,69.96
2018-02-04T21:16:31.545Z,69.64
2018-02-04T21:18:59.888Z,69.50
2018-02-04T21:21:28.351Z,70.09
2018-02-04T21:23:56.831Z,69.61
2018-02-04T21:26:25.439Z,70.18
2018-02-04T21:28:53.748Z,70.05
2018-02-04T21:31:22.075Z,69.71
2018-02-04T21:33:50.544Z,69.56
2018-02-04T21:36:18.893Z,69.33
2018-02-04T21:38:48.046Z,69.18
2018-02-04T21:41:16.414Z,69.26
2018-02-04T21:43:46.098Z,69.54
2018-02-04T21:46:14.439Z,69.19
2018-02-04T21:48:43.326Z,69.31
2018-02-04T21:51:11.648Z,68.85
2018-02-04T21:53:40.838Z,67.94
2018-02-04T21:56:10.044Z,68.17
2018-02-04T21:58:38.371Z,68.16
2018-02-04T22:01:06.772Z,67.97
2018-02-04T22:03:35.457Z,68.17
2018-02-04T22:06:03.788Z,68.09
2018-02-04T22:08:32.116Z,68.51
2018-02-04T22:11:00.516Z,68.25
2018-02-04T22:13:29.843Z,68.71
2018-02-04T22:15:58.353Z,68.89
2018-02-04T22:18:26.995Z,68.02
2018-02-04T22:20:55.303Z,68.33
2018-02-04T22:23:23.610Z,68.21
2018-02-04T22:25:51.933Z,68.73
2018-02-04T22:28:20.288Z,69.43
2018-02-04T22:30:49.401Z,68.67
2018-02-04T22:33:18.548Z,69.40
2018-02-04T22:35:46.845Z,68.79
2018-02-04T22:38:15.176Z,69.61
2018-02-04T22:40:43.499Z,70.79
2018-02-04T22:43:11.804Z,70.45
2018-02-04T22:45:41.023Z,70.10
2018-02-04T22:48:09.868Z,69.97
2018-02-04T22:50:38.163Z,69.37
2018-02-04T22:53:06.584Z,68.79
2018-02-04T22:55:35.522Z,69.46
2018-02-04T22:58:03.820Z,69.40
2018-02-04T23:00:32.116Z,69.79
2018-02-04T23:03:02.506Z,69.30
2018-02-04T23:05:30.809Z,69.67
2018-02-04T23:07:59.904Z,69.83
2018-02-04T23:10:28.286Z,69.61
2018-02-04T23:12:56.624Z,68.39
2018-02-04T23:15:24.936Z,68.23
2018-02-04T23:17:54.228Z,68.07
2018-02-04T23:20:23.358Z,67.96
2018-02-04T23:22:52.425Z,68.82
2018-02-04T23:25:21.520Z,69.87
2018-02-04T23:27:50.601Z,70.10
2018-02-04T23:30:19.667Z,69.02
2018-02-04T23:32:48.005Z,69.83
2018-02-04T23:35:16.290Z,70.29
2018-02-04T23:37:44.657Z,70.14
2018-02-04T23:40:13.259Z,69.79
2018-02-04T23:42:41.577Z,69.36
2018-02-04T23:45:09.862Z,69.40
2018-02-04T23:47:38.226Z,69.62
2018-02-04T23:50:06.552Z,69.40
2018-02-04T23:52:35.637Z,69.02
2018-02-04T23:55:04.728Z,69.07
2018-02-04T23:57:33.037Z,68.16
